Time;durP1;ratioP1;P1;durP2;ratioP2;P2;SDS_P1;SDS_P2;PMS_P1;PMS_P2;Temp;Humidity;BMP_temperature;BMP_pressure;BME280_temperature;BME280_humidity;BME280_pressure;Samples;Min_cycle;Max_cycle;Signal;HPM_P1;HPM_P2
2022/03/07 00:01:50;;;;;;;8.32;5.47;;;4.90;71.30;;;;;;5052442;28;20484;-64
2022/03/07 00:04:17;;;;;;;8.07;5.43;;;4.90;71.30;;;;;;5052208;28;20102;-64
2022/03/07 00:06:44;;;;;;;13.38;5.90;;;4.90;71.40;;;;;;5043850;28;20057;-65
2022/03/07 00:09:10;;;;;;;8.55;5.45;;;5.00;71.50;;;;;;5052014;28;20503;-64
2022/03/07 00:11:36;;;;;;;7.47;4.95;;;5.00;71.60;;;;;;5045876;28;20025;-64
2022/03/07 00:14:02;;;;;;;8.75;5.30;;;4.90;71.60;;;;;;5053332;28;20021;-64
2022/03/07 00:16:28;;;;;;;7.60;4.95;;;4.90;71.70;;;;;;5042891;28;20361;-65
2022/03/07 00:18:54;;;;;;;11.88;6.32;;;4.90;71.80;;;;;;5053327;28;20036;-64
2022/03/07 00:21:20;;;;;;;9.15;5.50;;;4.90;71.90;;;;;;5051851;28;20388;-64
2022/03/07 00:23:46;;;;;;;10.02;5.55;;;4.90;72.10;;;;;;5052536;28;20083;-64
2022/03/07 00:26:12;;;;;;;10.10;5.82;;;4.90;72.20;;;;;;5050975;28;20037;-64
2022/03/07 00:28:38;;;;;;;14.65;6.57;;;5.00;72.20;;;;;;5052176;28;20017;-64
2022/03/07 00:31:04;;;;;;;11.52;6.57;;;5.00;72.30;;;;;;5015746;28;20523;-64
2022/03/07 00:33:30;;;;;;;11.70;5.45;;;5.00;72.40;;;;;;5037453;28;20064;-65
2022/03/07 00:35:55;;;;;;;9.18;6.20;;;5.00;72.50;;;;;;5041456;28;20057;-64
2022/03/07 00:38:21;;;;;;;9.43;6.90;;;5.00;72.50;;;;;;5051701;28;20043;-64
2022/03/07 00:40:47;;;;;;;9.07;5.50;;;5.10;72.60;;;;;;5050970;28;20028;-64
2022/03/07 00:43:13;;;;;;;9.52;6.30;;;5.10;72.60;;;;;;5052536;28;20503;-64
2022/03/07 00:45:38;;;;;;;8.98;5.60;;;5.00;72.70;;;;;;5050821;28;20029;-64
2022/03/07 00:48:04;;;;;;;9.38;6.22;;;5.10;72.80;;;;;;5047093;28;20393;-64
2022/03/07 00:50:30;;;;;;;9.35;5.25;;;5.00;72.80;;;;;;5050832;28;20025;-64
2022/03/07 00:52:56;;;;;;;7.95;5.28;;;5.00;72.70;;;;;;5052030;28;20032;-65
2022/03/07 00:55:21;;;;;;;9.30;5.25;;;4.90;72.70;;;;;;5050861;28;20032;-64
2022/03/07 00:57:47;;;;;;;9.60;5.65;;;4.90;72.70;;;;;;5034188;28;20369;-64
2022/03/07 01:00:13;;;;;;;9.48;5.40;;;4.90;72.80;;;;;;5046426;28;20397;-64
2022/03/07 01:02:38;;;;;;;10.55;5.63;;;4.90;72.90;;;;;;5032529;28;20046;-64
2022/03/07 01:05:05;;;;;;;12.48;5.47;;;4.90;73.00;;;;;;5035974;28;20566;-65
2022/03/07 01:07:30;;;;;;;10.27;5.63;;;4.90;73.00;;;;;;5052592;28;20013;-65
2022/03/07 01:09:56;;;;;;;13.32;6.30;;;5.00;73.10;;;;;;5048288;28;20025;-64
2022/03/07 01:12:21;;;;;;;13.63;6.97;;;4.90;73.20;;;;;;5032326;28;20018;-64
2022/03/07 01:14:47;;;;;;;12.02;6.25;;;4.90;73.30;;;;;;5048926;28;20040;-64
2022/03/07 01:17:12;;;;;;;10.55;6.32;;;4.90;73.40;;;;;;5051999;28;20070;-64
2022/03/07 01:19:38;;;;;;;8.80;5.50;;;4.90;73.50;;;;;;5049845;28;20460;-64
2022/03/07 01:22:04;;;;;;;8.45;5.38;;;4.90;73.50;;;;;;5018271;28;20053;-64
2022/03/07 01:24:30;;;;;;;9.73;5.45;;;4.90;73.60;;;;;;5036053;28;20033;-63
2022/03/07 01:26:56;;;;;;;13.88;6.53;;;4.90;73.70;;;;;;5031653;28;20495;-64
2022/03/07 01:29:22;;;;;;;9.00;5.50;;;4.80;73.80;;;;;;5032181;28;20032;-64
2022/03/07 01:31:47;;;;;;;10.48;4.95;;;4.80;73.80;;;;;;5049428;28;20112;-64
2022/03/07 01:34:13;;;;;;;8.73;5.32;;;4.80;74.10;;;;;;5037728;28;20029;-64
2022/03/07 01:36:39;;;;;;;9.85;5.97;;;4.80;74.00;;;;;;5050309;28;20047;-63
2022/03/07 01:39:05;;;;;;;8.43;5.68;;;4.70;73.90;;;;;;5051757;28;20032;-64
2022/03/07 01:41:31;;;;;;;8.50;5.72;;;4.70;74.00;;;;;;5043539;28;20120;-63
2022/03/07 01:43:56;;;;;;;10.52;5.55;;;4.70;74.70;;;;;;5051735;28;20070;-63
2022/03/07 01:46:22;;;;;;;11.02;5.30;;;4.70;74.40;;;;;;5049490;28;20037;-64
2022/03/07 01:48:48;;;;;;;9.75;5.63;;;4.70;74.50;;;;;;5044807;28;20552;-64
2022/03/07 01:51:16;;;;;;;13.20;5.13;;;4.60;74.70;;;;;;5047092;28;20082;-64
2022/03/07 01:53:41;;;;;;;8.07;5.97;;;4.60;74.80;;;;;;5050698;28;20116;-64
2022/03/07 01:56:07;;;;;;;10.00;5.45;;;4.60;75.10;;;;;;5049779;28;20579;-64
2022/03/07 01:58:33;;;;;;;9.77;5.53;;;4.60;75.10;;;;;;5051379;28;20017;-64
2022/03/07 02:00:58;;;;;;;10.98;5.65;;;4.60;75.20;;;;;;5038113;28;20083;-64
2022/03/07 02:03:24;;;;;;;11.30;6.63;;;4.50;75.30;;;;;;5031043;28;20493;-64
2022/03/07 02:05:50;;;;;;;8.20;5.63;;;4.50;75.40;;;;;;5036103;28;20041;-65
2022/03/07 02:08:16;;;;;;;9.52;5.80;;;4.50;75.50;;;;;;5050969;28;20033;-64
2022/03/07 02:10:42;;;;;;;8.40;5.85;;;4.50;75.60;;;;;;5049579;28;20049;-64
2022/03/07 02:13:12;;;;;;;8.93;5.40;;;4.50;75.70;;;;;;5051221;28;20385;-64
2022/03/07 02:15:37;;;;;;;9.23;5.60;;;4.50;75.80;;;;;;5046598;28;20078;-64
2022/03/07 02:18:03;;;;;;;7.70;5.68;;;4.50;75.80;;;;;;5050953;28;20037;-64
2022/03/07 02:20:28;;;;;;;6.60;4.82;;;4.50;75.90;;;;;;5049099;28;20040;-65
2022/03/07 02:22:54;;;;;;;8.70;5.63;;;4.50;76.00;;;;;;5038849;28;20485;-65
2022/03/07 02:25:19;;;;;;;9.55;5.72;;;4.50;76.00;;;;;;5035948;28;20055;-64
2022/03/07 02:27:45;;;;;;;6.65;4.78;;;4.50;76.10;;;;;;5049331;28;20029;-63
2022/03/07 02:30:11;;;;;;;8.68;5.28;;;4.50;76.10;;;;;;5044853;28;20053;-63
2022/03/07 02:32:36;;;;;;;8.63;4.60;;;4.50;76.20;;;;;;5049393;28;20029;-65
2022/03/07 02:35:02;;;;;;;9.23;5.30;;;4.50;76.40;;;;;;5046749;28;20391;-63
2022/03/07 02:37:28;;;;;;;9.57;4.60;;;4.40;76.40;;;;;;5050023;28;20040;-63
2022/03/07 02:39:53;;;;;;;8.85;5.18;;;4.50;76.40;;;;;;5047647;28;20120;-63
2022/03/07 02:42:19;;;;;;;7.40;4.50;;;4.40;76.40;;;;;;5030814;28;20022;-64
2022/03/07 02:44:44;;;;;;;8.43;4.95;;;4.40;76.50;;;;;;5043662;28;20029;-63
2022/03/07 02:47:14;;;;;;;7.45;4.57;;;4.40;76.50;;;;;;5050783;28;20021;-63
2022/03/07 02:49:39;;;;;;;6.68;4.53;;;4.40;76.60;;;;;;5047435;28;20036;-64
2022/03/07 02:52:07;;;;;;;8.55;5.32;;;4.40;76.60;;;;;;5050561;28;20025;-63
2022/03/07 02:54:33;;;;;;;6.13;4.60;;;4.30;77.00;;;;;;5049968;28;20055;-63
2022/03/07 02:56:58;;;;;;;8.75;5.35;;;4.40;76.70;;;;;;5043878;28;20025;-64
2022/03/07 02:59:24;;;;;;;7.25;4.85;;;4.40;76.70;;;;;;5050600;28;20029;-64
2022/03/07 03:01:49;;;;;;;6.38;4.70;;;4.40;76.70;;;;;;5049389;28;20120;-64
2022/03/07 03:04:15;;;;;;;8.40;4.93;;;4.40;76.80;;;;;;5049621;28;20110;-63
2022/03/07 03:06:41;;;;;;;7.90;4.88;;;4.30;76.80;;;;;;5044405;28;20535;-64
2022/03/07 03:09:08;;;;;;;8.57;5.35;;;4.40;76.90;;;;;;5049180;28;20472;-63
2022/03/07 03:11:34;;;;;;;7.78;5.03;;;4.30;76.80;;;;;;5044720;28;20040;-64
2022/03/07 03:13:59;;;;;;;9.65;5.78;;;4.30;76.90;;;;;;5050454;28;20376;-63
2022/03/07 03:16:25;;;;;;;8.80;4.95;;;4.30;77.10;;;;;;5048538;28;20064;-64
2022/03/07 03:18:51;;;;;;;7.50;5.30;;;4.30;77.10;;;;;;5050301;28;20032;-63
2022/03/07 03:21:18;;;;;;;8.30;5.10;;;4.30;77.10;;;;;;5047421;28;20525;-64
2022/03/07 03:23:44;;;;;;;7.25;4.93;;;4.30;77.20;;;;;;5050190;28;20061;-64
2022/03/07 03:26:10;;;;;;;6.78;4.93;;;4.30;77.30;;;;;;5048054;28;20078;-64
2022/03/07 03:28:35;;;;;;;7.68;5.10;;;4.20;77.30;;;;;;5050209;28;20017;-64
2022/03/07 03:31:01;;;;;;;9.23;5.30;;;4.20;77.40;;;;;;5037408;28;20061;-64
2022/03/07 03:33:26;;;;;;;10.25;6.85;;;4.20;77.60;;;;;;5037287;28;20013;-64
2022/03/07 03:35:52;;;;;;;6.97;5.18;;;4.20;77.70;;;;;;5038830;28;20071;-64
2022/03/07 03:38:17;;;;;;;9.13;5.60;;;4.20;77.80;;;;;;5041465;28;20049;-65
2022/03/07 03:40:43;;;;;;;7.57;5.70;;;4.20;77.90;;;;;;5042523;28;20033;-64
2022/03/07 03:43:08;;;;;;;7.72;5.07;;;4.20;78.00;;;;;;5042945;28;20116;-64
2022/03/07 03:45:34;;;;;;;7.50;5.03;;;4.20;78.10;;;;;;5052517;28;20033;-64
2022/03/07 03:48:00;;;;;;;9.15;5.00;;;4.10;78.20;;;;;;5035125;28;20034;-64
2022/03/07 03:50:25;;;;;;;10.32;6.32;;;4.10;78.20;;;;;;5051852;28;20593;-63
2022/03/07 03:52:51;;;;;;;7.22;4.90;;;4.10;78.40;;;;;;5051153;28;20020;-63
2022/03/07 03:55:17;;;;;;;9.32;6.15;;;4.00;78.50;;;;;;5051452;28;20020;-63
2022/03/07 03:57:43;;;;;;;9.60;6.18;;;4.10;78.80;;;;;;5053478;28;20036;-64
2022/03/07 04:00:14;;;;;;;9.52;6.20;;;4.00;78.80;;;;;;5051855;28;20146;-64
2022/03/07 04:02:44;;;;;;;11.50;6.82;;;4.00;79.10;;;;;;5032925;28;20124;-63
2022/03/07 04:05:11;;;;;;;10.52;6.18;;;4.00;79.30;;;;;;5045459;28;20037;-63
2022/03/07 04:07:38;;;;;;;13.02;6.43;;;3.90;79.90;;;;;;5053571;28;20029;-64
2022/03/07 04:10:04;;;;;;;10.45;6.20;;;3.90;79.90;;;;;;5051866;28;20495;-64
2022/03/07 04:12:29;;;;;;;11.18;6.60;;;3.90;80.10;;;;;;5052024;28;20138;-64
2022/03/07 04:14:55;;;;;;;12.25;7.35;;;3.80;80.60;;;;;;5050776;28;20112;-64
2022/03/07 04:17:20;;;;;;;9.32;6.57;;;3.70;80.80;;;;;;5034717;28;20024;-63
2022/03/07 04:19:46;;;;;;;10.75;7.20;;;3.70;81.20;;;;;;5040020;28;20741;-64
2022/03/07 04:22:11;;;;;;;12.23;7.05;;;3.60;81.70;;;;;;5052777;28;20028;-63
2022/03/07 04:24:37;;;;;;;14.30;6.97;;;3.60;81.80;;;;;;5051069;28;20033;-63
2022/03/07 04:27:03;;;;;;;10.95;6.65;;;3.70;82.00;;;;;;5036481;28;20025;-64
2022/03/07 04:29:28;;;;;;;11.32;7.72;;;3.70;82.10;;;;;;5052114;28;20028;-63
2022/03/07 04:31:54;;;;;;;9.95;6.95;;;3.80;82.30;;;;;;5034938;28;20033;-63
2022/03/07 04:34:20;;;;;;;10.90;6.75;;;3.80;82.50;;;;;;5049072;28;20021;-64
2022/03/07 04:36:45;;;;;;;13.07;6.78;;;3.80;82.70;;;;;;5015130;28;20030;-63
2022/03/07 04:39:11;;;;;;;11.60;7.32;;;3.80;82.70;;;;;;5032738;28;20384;-65
2022/03/07 04:41:39;;;;;;;10.38;7.60;;;3.80;82.80;;;;;;5049140;28;20036;-64
2022/03/07 04:44:05;;;;;;;11.13;7.18;;;3.80;83.00;;;;;;5045783;28;20108;-63
2022/03/07 04:46:30;;;;;;;12.27;7.55;;;3.80;83.20;;;;;;5032982;28;20128;-63
2022/03/07 04:48:56;;;;;;;11.43;7.05;;;3.80;83.40;;;;;;5032774;28;20116;-64
2022/03/07 04:51:21;;;;;;;13.63;7.95;;;3.80;83.70;;;;;;5031974;28;20492;-64
2022/03/07 04:53:47;;;;;;;15.75;8.85;;;3.80;83.90;;;;;;5032611;28;20034;-63
2022/03/07 04:56:12;;;;;;;11.82;8.00;;;3.80;84.70;;;;;;5044767;28;20524;-63
2022/03/07 04:58:38;;;;;;;14.48;7.88;;;3.70;84.50;;;;;;5052825;28;20055;-64
2022/03/07 05:01:04;;;;;;;12.95;8.05;;;3.70;85.00;;;;;;5050154;28;20103;-63
2022/03/07 05:03:30;;;;;;;11.90;7.70;;;3.70;84.80;;;;;;5042990;28;20106;-63
2022/03/07 05:05:55;;;;;;;11.40;7.90;;;3.70;84.90;;;;;;5039880;28;20091;-63
2022/03/07 05:08:20;;;;;;;10.93;8.65;;;3.70;85.40;;;;;;5038060;28;20029;-63
2022/03/07 05:10:46;;;;;;;13.13;7.88;;;3.60;86.00;;;;;;5040585;28;20030;-63
2022/03/07 05:13:11;;;;;;;15.63;7.47;;;3.60;85.60;;;;;;5035805;28;20013;-64
2022/03/07 05:15:38;;;;;;;11.70;7.32;;;3.60;85.50;;;;;;5042207;28;20034;-63
2022/03/07 05:18:04;;;;;;;12.15;7.97;;;3.60;85.40;;;;;;5032342;28;20465;-64
2022/03/07 05:20:30;;;;;;;12.82;8.10;;;3.60;85.50;;;;;;5032018;28;20040;-64
2022/03/07 05:22:55;;;;;;;12.07;7.30;;;3.60;85.90;;;;;;5051376;28;20033;-63
2022/03/07 05:25:21;;;;;;;13.07;7.60;;;3.60;85.80;;;;;;5050544;28;20049;-63
2022/03/07 05:27:47;;;;;;;12.88;7.68;;;3.60;86.10;;;;;;5051875;28;20025;-63
2022/03/07 05:30:15;;;;;;;11.75;7.78;;;3.60;85.80;;;;;;5045404;28;20083;-63
2022/03/07 05:32:43;;;;;;;12.02;8.15;;;3.60;86.40;;;;;;5047977;28;20033;-63
2022/03/07 05:35:09;;;;;;;11.77;7.38;;;3.60;86.10;;;;;;5036171;28;20372;-63
2022/03/07 05:37:35;;;;;;;11.30;7.35;;;3.70;86.00;;;;;;5052130;28;20031;-64
2022/03/07 05:40:00;;;;;;;13.10;7.38;;;3.60;86.00;;;;;;5049865;28;20084;-63
2022/03/07 05:42:26;;;;;;;13.68;7.95;;;3.60;86.00;;;;;;5051727;28;20431;-63
2022/03/07 05:44:52;;;;;;;14.93;8.63;;;3.60;86.00;;;;;;5049696;28;20132;-63
2022/03/07 05:47:18;;;;;;;13.75;8.15;;;3.60;86.10;;;;;;5051778;28;20061;-64
2022/03/07 05:49:43;;;;;;;11.00;7.65;;;3.60;86.40;;;;;;5050189;28;20067;-64
2022/03/07 05:52:09;;;;;;;12.57;8.02;;;3.60;86.20;;;;;;5049662;28;20040;-64
2022/03/07 05:54:35;;;;;;;10.70;7.18;;;3.50;86.50;;;;;;5031584;28;20032;-64
2022/03/07 05:57:00;;;;;;;11.32;7.82;;;3.50;86.80;;;;;;5031428;28;20029;-64
2022/03/07 05:59:26;;;;;;;11.95;7.80;;;3.50;86.80;;;;;;5031440;28;20715;-63
2022/03/07 06:01:51;;;;;;;12.70;7.57;;;3.40;86.90;;;;;;5032190;28;20120;-64
2022/03/07 06:04:17;;;;;;;14.63;8.20;;;3.50;87.00;;;;;;5031061;28;20045;-65
2022/03/07 06:06:42;;;;;;;10.82;7.93;;;3.50;87.60;;;;;;5047701;28;20487;-65
2022/03/07 06:09:08;;;;;;;14.90;8.10;;;3.50;87.40;;;;;;5049696;28;20132;-65
2022/03/07 06:11:33;;;;;;;12.43;8.23;;;3.50;87.90;;;;;;5048335;28;20025;-64
2022/03/07 06:13:59;;;;;;;14.43;8.38;;;3.50;87.50;;;;;;5049467;28;20427;-64
2022/03/07 06:16:24;;;;;;;12.13;8.55;;;3.60;87.70;;;;;;5035740;28;20040;-65
2022/03/07 06:18:50;;;;;;;16.15;9.65;;;3.60;87.80;;;;;;5031382;28;20168;-65
2022/03/07 06:21:15;;;;;;;15.40;9.55;;;3.60;87.90;;;;;;5044118;28;20063;-63
2022/03/07 06:23:42;;;;;;;13.07;8.77;;;3.60;88.00;;;;;;5051448;28;20047;-64
2022/03/07 06:26:08;;;;;;;16.30;9.07;;;3.60;88.10;;;;;;5048350;28;20037;-65
2022/03/07 06:28:34;;;;;;;18.17;9.43;;;3.70;88.20;;;;;;5050516;28;20086;-65
2022/03/07 06:31:00;;;;;;;14.77;9.43;;;3.70;88.20;;;;;;5038671;28;20041;-65
2022/03/07 06:33:25;;;;;;;15.90;9.48;;;3.70;88.30;;;;;;5050451;28;20029;-65
2022/03/07 06:35:51;;;;;;;16.65;9.35;;;3.80;88.40;;;;;;5049612;28;20036;-65
2022/03/07 06:38:18;;;;;;;13.88;9.10;;;3.70;88.50;;;;;;5055557;28;20029;-65
2022/03/07 06:40:43;;;;;;;15.30;9.00;;;3.70;88.80;;;;;;5058907;28;20508;-64
2022/03/07 06:43:08;;;;;;;15.68;9.63;;;3.70;89.00;;;;;;5050310;28;20037;-65
2022/03/07 06:45:34;;;;;;;14.48;10.20;;;3.70;89.50;;;;;;5042323;28;20067;-64
2022/03/07 06:48:00;;;;;;;15.10;9.57;;;3.70;89.60;;;;;;5050624;28;20056;-65
2022/03/07 06:50:26;;;;;;;14.70;9.57;;;3.60;90.10;;;;;;5041930;28;20396;-64
2022/03/07 06:52:52;;;;;;;15.45;10.00;;;3.60;90.30;;;;;;5049265;28;20033;-64
2022/03/07 06:55:17;;;;;;;15.07;9.55;;;3.60;90.10;;;;;;5048953;28;20705;-65
2022/03/07 06:57:43;;;;;;;15.65;9.98;;;3.60;90.20;;;;;;5050299;28;20037;-64
2022/03/07 07:00:11;;;;;;;15.63;8.85;;;3.70;90.20;;;;;;5031652;28;20068;-65
2022/03/07 07:02:36;;;;;;;13.00;9.48;;;3.70;90.30;;;;;;5048535;28;20519;-65
2022/03/07 07:05:04;;;;;;;15.25;9.40;;;3.70;90.40;;;;;;5038007;28;20028;-64
2022/03/07 07:07:30;;;;;;;18.27;10.43;;;3.80;90.50;;;;;;5048999;28;20048;-64
2022/03/07 07:09:56;;;;;;;15.50;9.90;;;3.80;90.50;;;;;;5041368;28;20116;-65
2022/03/07 07:12:22;;;;;;;18.02;10.70;;;3.80;90.50;;;;;;5033858;28;20124;-64
2022/03/07 07:14:48;;;;;;;16.67;10.02;;;3.90;90.50;;;;;;5043969;28;20041;-64
2022/03/07 07:17:15;;;;;;;15.00;9.80;;;3.90;90.60;;;;;;5054201;28;20025;-64
2022/03/07 07:19:40;;;;;;;16.05;9.77;;;4.00;90.70;;;;;;5050234;28;20390;-64
2022/03/07 07:22:06;;;;;;;17.55;10.73;;;4.00;90.60;;;;;;5052456;28;20025;-64
2022/03/07 07:24:31;;;;;;;16.85;9.82;;;4.00;90.70;;;;;;5034832;28;20040;-64
2022/03/07 07:26:57;;;;;;;16.00;9.63;;;4.00;91.10;;;;;;5052092;28;20447;-64
2022/03/07 07:29:22;;;;;;;17.25;9.82;;;4.00;90.80;;;;;;5053236;28;20120;-63
2022/03/07 07:31:48;;;;;;;19.77;10.93;;;4.10;91.00;;;;;;5046386;28;20033;-64
2022/03/07 07:34:14;;;;;;;16.65;9.80;;;4.10;90.80;;;;;;5037934;28;20029;-65
2022/03/07 07:36:40;;;;;;;22.65;9.98;;;4.20;90.80;;;;;;5049607;28;20086;-65
2022/03/07 07:39:06;;;;;;;13.38;9.55;;;4.30;90.80;;;;;;5031441;28;20029;-65
2022/03/07 07:41:31;;;;;;;13.80;9.45;;;4.30;90.70;;;;;;5038253;28;20029;-65
2022/03/07 07:43:57;;;;;;;12.93;9.43;;;4.40;90.70;;;;;;5050886;28;20519;-65
2022/03/07 07:46:22;;;;;;;16.52;10.88;;;4.40;90.80;;;;;;5036838;28;20489;-65
2022/03/07 07:48:48;;;;;;;18.20;10.65;;;4.50;90.90;;;;;;5039345;28;20021;-64
2022/03/07 07:51:13;;;;;;;18.55;11.45;;;4.50;90.80;;;;;;5038408;28;20533;-65
2022/03/07 07:53:39;;;;;;;18.20;12.30;;;4.50;90.90;;;;;;5052756;28;20028;-64
2022/03/07 07:56:04;;;;;;;18.52;11.00;;;4.50;90.90;;;;;;5057222;28;20025;-64
2022/03/07 07:58:30;;;;;;;18.45;10.07;;;4.60;91.00;;;;;;5053038;28;20017;-64
2022/03/07 08:00:55;;;;;;;19.67;10.90;;;4.70;91.00;;;;;;5051433;28;20487;-64
2022/03/07 08:03:21;;;;;;;18.95;11.15;;;4.70;91.00;;;;;;5051957;28;20088;-64
2022/03/07 08:05:48;;;;;;;19.83;10.82;;;4.70;91.00;;;;;;5051413;28;20103;-63
2022/03/07 08:08:14;;;;;;;15.13;10.45;;;4.80;90.90;;;;;;5053938;28;20392;-64
2022/03/07 08:10:40;;;;;;;17.70;11.52;;;4.90;91.00;;;;;;5051475;28;20029;-62
2022/03/07 08:13:06;;;;;;;16.70;10.40;;;5.00;91.00;;;;;;5051991;28;20029;-64
2022/03/07 08:15:31;;;;;;;17.38;10.55;;;5.00;91.10;;;;;;5049829;28;20033;-66
2022/03/07 08:17:57;;;;;;;16.45;10.80;;;5.10;91.10;;;;;;5043181;28;20112;-67
2022/03/07 08:20:23;;;;;;;14.85;9.70;;;5.10;91.20;;;;;;5048573;28;20083;-66
2022/03/07 08:22:50;;;;;;;17.85;10.40;;;5.20;91.20;;;;;;5045622;28;20025;-66
2022/03/07 08:25:16;;;;;;;13.68;10.07;;;5.20;91.20;;;;;;5049725;28;20041;-66
2022/03/07 08:27:43;;;;;;;18.63;11.55;;;5.30;91.10;;;;;;5051961;28;20037;-66
2022/03/07 08:30:11;;;;;;;19.08;10.98;;;5.30;91.10;;;;;;5046896;28;20029;-66
2022/03/07 08:32:37;;;;;;;14.18;9.52;;;5.40;91.30;;;;;;5046413;28;20033;-67
2022/03/07 08:35:05;;;;;;;18.25;9.85;;;5.40;91.10;;;;;;5043299;28;20591;-67
2022/03/07 08:37:31;;;;;;;15.85;10.23;;;5.50;91.10;;;;;;5051132;28;20025;-67
2022/03/07 08:39:57;;;;;;;14.85;9.43;;;5.50;91.10;;;;;;5048463;28;20428;-66
2022/03/07 08:42:22;;;;;;;15.70;9.70;;;5.60;91.10;;;;;;5050795;28;20074;-66
2022/03/07 08:44:48;;;;;;;14.32;8.60;;;5.60;91.10;;;;;;5064279;28;20125;-67
2022/03/07 08:47:13;;;;;;;14.25;9.73;;;5.80;91.00;;;;;;5034732;28;20022;-66
2022/03/07 08:49:39;;;;;;;20.02;9.10;;;5.70;90.90;;;;;;5047374;28;20026;-66
2022/03/07 08:52:05;;;;;;;17.15;9.25;;;5.80;90.80;;;;;;5037882;28;20372;-66
2022/03/07 08:54:31;;;;;;;15.55;8.20;;;5.90;90.80;;;;;;5051422;28;20067;-65
2022/03/07 08:56:56;;;;;;;16.02;9.95;;;6.00;90.70;;;;;;5052000;28;20079;-64
2022/03/07 08:59:24;;;;;;;15.48;7.95;;;6.00;90.70;;;;;;5052389;28;20017;-64
2022/03/07 09:01:50;;;;;;;16.40;8.07;;;6.10;90.50;;;;;;5049534;28;20048;-64
2022/03/07 09:04:15;;;;;;;15.02;8.52;;;6.10;90.40;;;;;;5047444;28;20046;-65
2022/03/07 09:06:42;;;;;;;14.43;8.65;;;6.20;90.20;;;;;;5052816;28;20040;-65
2022/03/07 09:09:07;;;;;;;12.77;8.20;;;6.20;90.10;;;;;;5050195;28;20033;-65
2022/03/07 09:11:33;;;;;;;15.13;7.78;;;6.30;90.00;;;;;;5043075;28;20178;-65
2022/03/07 09:13:58;;;;;;;13.98;7.78;;;6.30;89.70;;;;;;5050724;28;20021;-65
2022/03/07 09:16:24;;;;;;;13.32;8.27;;;6.30;89.40;;;;;;5052159;28;20394;-65
2022/03/07 09:18:49;;;;;;;12.93;7.78;;;6.40;88.90;;;;;;5060086;28;20028;-65
2022/03/07 09:21:15;;;;;;;10.88;7.68;;;6.40;88.60;;;;;;5050280;28;20055;-65
2022/03/07 09:23:40;;;;;;;14.73;8.10;;;6.30;87.80;;;;;;5051164;28;20104;-64
2022/03/07 09:26:09;;;;;;;12.88;8.30;;;6.40;88.20;;;;;;5050468;28;20389;-65
2022/03/07 09:28:35;;;;;;;9.77;6.88;;;6.40;88.10;;;;;;5051182;28;20132;-64
2022/03/07 09:31:01;;;;;;;10.10;6.28;;;6.50;87.90;;;;;;5050372;28;20055;-64
2022/03/07 09:33:28;;;;;;;12.80;6.75;;;6.50;87.00;;;;;;5051660;28;20021;-65
2022/03/07 09:35:54;;;;;;;10.85;6.82;;;6.60;86.90;;;;;;5050114;28;20029;-64
2022/03/07 09:38:19;;;;;;;8.43;6.20;;;6.60;86.20;;;;;;5051479;28;20344;-65
2022/03/07 09:40:46;;;;;;;12.75;6.78;;;6.60;85.30;;;;;;5040508;28;20084;-64
2022/03/07 09:43:13;;;;;;;11.77;6.88;;;6.60;85.30;;;;;;5031527;28;20036;-64
2022/03/07 09:45:39;;;;;;;8.95;6.18;;;6.60;85.00;;;;;;5040653;28;20049;-65
2022/03/07 09:48:05;;;;;;;9.23;5.93;;;6.70;84.90;;;;;;5051050;28;20070;-65
2022/03/07 09:50:30;;;;;;;9.07;6.15;;;6.80;84.10;;;;;;5025242;28;20083;-65
2022/03/07 09:52:56;;;;;;;8.73;6.38;;;6.80;83.40;;;;;;5031459;28;20028;-65
2022/03/07 09:55:22;;;;;;;9.98;6.45;;;6.80;82.50;;;;;;5037843;28;20040;-64
2022/03/07 09:57:48;;;;;;;11.73;6.45;;;6.80;82.50;;;;;;5051456;28;20024;-64
2022/03/07 10:00:15;;;;;;;12.90;6.05;;;6.80;82.60;;;;;;5049810;28;20078;-64
2022/03/07 10:02:55;;;;;;;8.88;5.90;;;6.80;82.20;;;;;;5029374;28;20041;-64
2022/03/07 10:05:21;;;;;;;12.10;6.70;;;6.80;81.90;;;;;;5031210;28;20026;-65
2022/03/07 10:07:47;;;;;;;12.57;7.15;;;6.80;81.50;;;;;;5031914;28;20377;-65
2022/03/07 10:10:13;;;;;;;11.10;6.90;;;6.90;82.10;;;;;;5015372;28;20477;-64
2022/03/07 10:12:49;;;;;;;11.60;6.97;;;6.90;81.80;;;;;;5031150;28;20033;-65
2022/03/07 10:15:18;;;;;;;12.57;6.20;;;6.90;81.30;;;;;;5036705;28;20566;-64
2022/03/07 10:17:52;;;;;;;8.98;5.60;;;6.90;81.20;;;;;;5032456;28;20366;-64
2022/03/07 10:20:20;;;;;;;9.50;5.88;;;7.00;81.30;;;;;;5030583;28;20030;-64
2022/03/07 10:22:49;;;;;;;8.68;5.75;;;7.00;81.30;;;;;;5033422;28;20404;-64
2022/03/07 10:25:15;;;;;;;13.05;7.80;;;7.10;81.00;;;;;;5044889;28;20036;-64
2022/03/07 10:27:44;;;;;;;8.75;5.18;;;7.10;80.90;;;;;;5030827;28;20049;-64
2022/03/07 10:30:16;;;;;;;7.55;5.20;;;7.10;80.80;;;;;;5030512;28;20064;-64
2022/03/07 10:32:43;;;;;;;8.30;4.97;;;7.10;80.40;;;;;;5031177;28;20586;-64
2022/03/07 10:35:49;;;;;;;8.73;5.45;;;7.20;80.60;;;;;;5015717;28;20033;-65
2022/03/07 10:38:17;;;;;;;10.32;5.15;;;7.20;80.30;;;;;;5045747;28;20503;-65
2022/03/07 10:40:48;;;;;;;8.13;5.43;;;7.30;80.00;;;;;;5049202;28;20061;-64
2022/03/07 10:43:15;;;;;;;8.20;5.10;;;7.30;80.20;;;;;;5050629;28;20137;-65
2022/03/07 10:45:45;;;;;;;9.65;5.47;;;7.40;80.20;;;;;;5031731;28;20396;-65
2022/03/07 10:48:10;;;;;;;10.93;4.88;;;7.50;80.10;;;;;;5050816;28;20108;-65
2022/03/07 10:50:36;;;;;;;8.05;4.97;;;7.50;79.40;;;;;;5044323;28;20440;-65
2022/03/07 10:53:05;;;;;;;6.93;4.50;;;7.50;78.40;;;;;;5034745;28;20052;-65
2022/03/07 10:55:32;;;;;;;7.70;4.22;;;7.50;78.60;;;;;;5041728;28;20033;-65
2022/03/07 10:58:09;;;;;;;8.38;4.72;;;7.60;78.40;;;;;;5053471;28;20028;-64
2022/03/07 11:00:50;;;;;;;7.38;4.00;;;7.60;77.00;;;;;;5053219;28;20507;-64
2022/03/07 11:03:23;;;;;;;5.82;4.03;;;7.60;77.20;;;;;;5035535;28;20671;-65
2022/03/07 11:05:50;;;;;;;7.90;4.28;;;7.70;76.90;;;;;;5047185;28;20049;-65
2022/03/07 11:08:17;;;;;;;6.63;3.83;;;7.60;76.50;;;;;;5053816;28;20044;-64
2022/03/07 11:10:48;;;;;;;6.55;4.45;;;7.70;76.50;;;;;;5053294;28;20036;-63
2022/03/07 11:13:14;;;;;;;8.27;5.07;;;7.70;76.30;;;;;;5041339;28;20311;-64
2022/03/07 11:15:45;;;;;;;7.55;4.55;;;7.80;76.90;;;;;;5043491;28;20098;-65
2022/03/07 11:18:12;;;;;;;5.28;3.78;;;7.90;76.80;;;;;;5039212;28;20031;-64
2022/03/07 11:20:40;;;;;;;8.13;3.78;;;7.90;75.20;;;;;;5052904;28;20071;-65
2022/03/07 11:23:06;;;;;;;5.00;3.35;;;7.90;73.90;;;;;;5054113;28;20116;-64
2022/03/07 11:25:32;;;;;;;6.15;3.40;;;7.90;73.30;;;;;;5052867;28;20159;-65
2022/03/07 11:27:58;;;;;;;5.90;3.60;;;7.90;72.40;;;;;;5054099;28;20140;-65
2022/03/07 11:30:24;;;;;;;7.60;4.20;;;8.00;72.80;;;;;;5052752;28;20067;-65
2022/03/07 11:32:51;;;;;;;6.22;3.80;;;8.10;73.60;;;;;;5053882;28;20067;-65
2022/03/07 11:35:16;;;;;;;7.43;4.22;;;8.20;73.60;;;;;;5053252;28;20040;-65
2022/03/07 11:37:42;;;;;;;5.53;3.47;;;8.30;72.90;;;;;;5053902;28;20028;-65
2022/03/07 11:40:24;;;;;;;5.50;3.00;;;8.30;71.10;;;;;;5052739;28;20109;-65
2022/03/07 11:42:50;;;;;;;4.82;2.78;;;8.30;70.10;;;;;;5053646;28;20112;-65
2022/03/07 11:45:19;;;;;;;6.80;3.60;;;8.40;70.60;;;;;;5034106;28;20121;-65
2022/03/07 11:47:47;;;;;;;7.38;3.42;;;8.40;69.10;;;;;;5052729;28;20052;-65
2022/03/07 11:50:15;;;;;;;5.10;3.00;;;8.40;69.70;;;;;;5052237;28;20029;-65
2022/03/07 11:52:41;;;;;;;7.07;3.35;;;8.50;68.90;;;;;;5053720;28;20063;-65
2022/03/07 11:55:27;;;;;;;4.75;2.95;;;8.40;68.50;;;;;;5051221;28;20061;-65
2022/03/07 11:58:02;;;;;;;5.72;3.70;;;8.50;68.70;;;;;;5053665;28;20479;-64
2022/03/07 12:00:35;;;;;;;4.03;2.80;;;8.50;67.30;;;;;;5048843;28;20020;-65
2022/03/07 12:03:13;;;;;;;6.78;3.55;;;8.50;68.20;;;;;;5053016;28;20045;-64
2022/03/07 12:05:40;;;;;;;6.00;3.45;;;8.50;68.00;;;;;;5051523;28;20044;-65
2022/03/07 12:08:16;;;;;;;6.05;2.95;;;8.50;67.90;;;;;;5053134;28;20031;-65
2022/03/07 12:10:57;;;;;;;4.65;3.10;;;8.60;68.20;;;;;;5047302;28;20029;-64
2022/03/07 12:13:23;;;;;;;5.30;2.92;;;8.70;66.70;;;;;;5033015;28;20022;-65
2022/03/07 12:15:53;;;;;;;5.97;2.78;;;8.70;67.50;;;;;;5042456;28;20041;-64
2022/03/07 12:18:19;;;;;;;6.35;2.58;;;8.70;66.20;;;;;;5032941;28;20037;-64
2022/03/07 12:20:55;;;;;;;5.18;3.13;;;8.70;66.00;;;;;;5033485;28;20037;-65
2022/03/07 12:23:23;;;;;;;5.25;3.45;;;8.80;66.40;;;;;;5042864;28;20025;-64
2022/03/07 12:26:09;;;;;;;5.13;3.53;;;8.80;66.10;;;;;;5051737;28;20085;-64
2022/03/07 12:28:45;;;;;;;5.25;2.63;;;8.90;65.70;;;;;;5033275;28;20033;-64
2022/03/07 12:31:11;;;;;;;4.88;2.45;;;9.00;65.90;;;;;;5057254;28;20097;-64
2022/03/07 12:33:40;;;;;;;8.50;2.97;;;9.00;64.30;;;;;;5050583;28;20017;-63
2022/03/07 12:36:09;;;;;;;5.03;2.25;;;9.00;63.10;;;;;;5047426;28;20243;-64
2022/03/07 12:38:44;;;;;;;4.25;2.80;;;9.00;63.20;;;;;;5043205;28;20021;-64
2022/03/07 12:41:10;;;;;;;5.88;2.88;;;9.00;63.00;;;;;;5040753;28;20057;-65
2022/03/07 12:43:38;;;;;;;5.43;2.55;;;9.00;63.70;;;;;;5048802;28;20076;-66
2022/03/07 12:46:03;;;;;;;4.22;1.95;;;9.10;63.70;;;;;;5042086;28;20124;-65
2022/03/07 12:48:38;;;;;;;3.85;2.15;;;9.10;62.10;;;;;;5051029;28;20108;-66